sensor_id;sensor_type;location;lat;lon;timestamp;P1;durP1;ratioP1;P2;durP2;ratioP2
44452;SDS011;30155;52.164;21.236;2023-02-01T00:04:25;7.00;;;6.30;;
44452;SDS011;30155;52.164;21.236;2023-02-01T00:09:18;9.00;;;7.00;;
44452;SDS011;30155;52.164;21.236;2023-02-01T00:14:11;6.90;;;6.10;;
44452;SDS011;30155;52.164;21.236;2023-02-01T00:19:12;7.10;;;4.70;;
44452;SDS011;30155;52.164;21.236;2023-02-01T00:24:11;6.10;;;5.30;;
44452;SDS011;30155;52.164;21.236;2023-02-01T00:29:05;8.10;;;6.40;;
44452;SDS011;30155;52.164;21.236;2023-02-01T00:33:59;8.00;;;5.90;;
44452;SDS011;30155;52.164;21.236;2023-02-01T00:38:52;6.50;;;5.80;;
44452;SDS011;30155;52.164;21.236;2023-02-01T00:43:45;6.30;;;5.40;;
44452;SDS011;30155;52.164;21.236;2023-02-01T00:48:39;6.60;;;4.90;;
44452;SDS011;30155;52.164;21.236;2023-02-01T00:53:32;5.80;;;4.70;;
44452;SDS011;30155;52.164;21.236;2023-02-01T00:58:26;4.80;;;4.20;;
44452;SDS011;30155;52.164;21.236;2023-02-01T01:03:19;4.50;;;3.70;;
44452;SDS011;30155;52.164;21.236;2023-02-01T01:08:12;5.50;;;3.80;;
44452;SDS011;30155;52.164;21.236;2023-02-01T01:13:07;6.50;;;5.10;;
44452;SDS011;30155;52.164;21.236;2023-02-01T01:18:00;5.00;;;4.10;;
44452;SDS011;30155;52.164;21.236;2023-02-01T01:22:53;8.10;;;3.40;;
44452;SDS011;30155;52.164;21.236;2023-02-01T01:27:46;4.50;;;2.70;;
44452;SDS011;30155;52.164;21.236;2023-02-01T01:32:39;6.40;;;2.50;;
44452;SDS011;30155;52.164;21.236;2023-02-01T01:37:32;6.70;;;2.90;;
44452;SDS011;30155;52.164;21.236;2023-02-01T01:42:27;3.10;;;2.20;;
44452;SDS011;30155;52.164;21.236;2023-02-01T01:47:20;3.20;;;1.80;;
44452;SDS011;30155;52.164;21.236;2023-02-01T01:52:15;4.00;;;1.70;;
44452;SDS011;30155;52.164;21.236;2023-02-01T01:57:18;4.00;;;1.00;;
44452;SDS011;30155;52.164;21.236;2023-02-01T02:02:16;3.30;;;1.60;;
44452;SDS011;30155;52.164;21.236;2023-02-01T02:07:11;2.90;;;1.30;;
44452;SDS011;30155;52.164;21.236;2023-02-01T02:12:10;2.80;;;2.00;;
44452;SDS011;30155;52.164;21.236;2023-02-01T02:48:34;5.30;;;2.30;;
44452;SDS011;30155;52.164;21.236;2023-02-01T02:59:11;9.50;;;3.20;;
44452;SDS011;30155;52.164;21.236;2023-02-01T03:04:24;8.90;;;2.60;;
44452;SDS011;30155;52.164;21.236;2023-02-01T03:14:16;6.40;;;2.50;;
44452;SDS011;30155;52.164;21.236;2023-02-01T03:19:18;3.90;;;2.30;;
44452;SDS011;30155;52.164;21.236;2023-02-01T03:29:29;11.00;;;2.80;;
44452;SDS011;30155;52.164;21.236;2023-02-01T03:34:29;10.30;;;2.60;;
44452;SDS011;30155;52.164;21.236;2023-02-01T03:39:24;8.00;;;2.70;;
44452;SDS011;30155;52.164;21.236;2023-02-01T03:44:36;16.20;;;3.20;;
44452;SDS011;30155;52.164;21.236;2023-02-01T03:49:44;9.10;;;2.90;;
44452;SDS011;30155;52.164;21.236;2023-02-01T03:54:44;6.30;;;2.10;;
44452;SDS011;30155;52.164;21.236;2023-02-01T03:59:43;7.50;;;2.10;;
44452;SDS011;30155;52.164;21.236;2023-02-01T04:04:39;6.90;;;3.00;;
44452;SDS011;30155;52.164;21.236;2023-02-01T04:09:36;9.80;;;3.10;;
44452;SDS011;30155;52.164;21.236;2023-02-01T04:14:29;12.60;;;3.10;;
44452;SDS011;30155;52.164;21.236;2023-02-01T04:19:22;6.30;;;2.60;;
44452;SDS011;30155;52.164;21.236;2023-02-01T04:24:15;10.70;;;3.10;;
44452;SDS011;30155;52.164;21.236;2023-02-01T04:29:08;10.90;;;2.50;;
44452;SDS011;30155;52.164;21.236;2023-02-01T04:34:02;11.70;;;2.80;;
44452;SDS011;30155;52.164;21.236;2023-02-01T04:38:55;9.80;;;2.80;;
44452;SDS011;30155;52.164;21.236;2023-02-01T04:43:48;13.90;;;3.90;;
44452;SDS011;30155;52.164;21.236;2023-02-01T04:48:42;12.80;;;2.60;;
44452;SDS011;30155;52.164;21.236;2023-02-01T04:53:35;12.70;;;2.80;;
44452;SDS011;30155;52.164;21.236;2023-02-01T04:58:29;9.80;;;1.90;;
44452;SDS011;30155;52.164;21.236;2023-02-01T05:03:22;7.90;;;2.20;;
44452;SDS011;30155;52.164;21.236;2023-02-01T05:08:15;10.80;;;2.30;;
44452;SDS011;30155;52.164;21.236;2023-02-01T05:13:09;7.30;;;2.30;;
44452;SDS011;30155;52.164;21.236;2023-02-01T05:18:20;8.90;;;2.80;;
44452;SDS011;30155;52.164;21.236;2023-02-01T05:23:13;8.60;;;2.60;;
44452;SDS011;30155;52.164;21.236;2023-02-01T05:28:08;9.20;;;2.10;;
44452;SDS011;30155;52.164;21.236;2023-02-01T05:33:03;6.60;;;2.10;;
44452;SDS011;30155;52.164;21.236;2023-02-01T05:37:56;7.70;;;2.30;;
44452;SDS011;30155;52.164;21.236;2023-02-01T05:42:49;13.90;;;2.40;;
44452;SDS011;30155;52.164;21.236;2023-02-01T05:47:46;7.70;;;2.10;;
44452;SDS011;30155;52.164;21.236;2023-02-01T05:52:39;13.10;;;2.50;;
44452;SDS011;30155;52.164;21.236;2023-02-01T05:57:32;10.10;;;2.80;;
44452;SDS011;30155;52.164;21.236;2023-02-01T06:02:25;11.10;;;3.30;;
44452;SDS011;30155;52.164;21.236;2023-02-01T06:07:18;5.60;;;2.40;;
44452;SDS011;30155;52.164;21.236;2023-02-01T06:12:11;10.90;;;2.30;;
44452;SDS011;30155;52.164;21.236;2023-02-01T06:17:04;5.60;;;2.30;;
44452;SDS011;30155;52.164;21.236;2023-02-01T06:21:57;6.00;;;3.10;;
44452;SDS011;30155;52.164;21.236;2023-02-01T06:26:50;8.70;;;2.40;;
44452;SDS011;30155;52.164;21.236;2023-02-01T06:31:43;6.40;;;2.80;;
44452;SDS011;30155;52.164;21.236;2023-02-01T06:36:37;9.20;;;3.10;;
44452;SDS011;30155;52.164;21.236;2023-02-01T06:41:30;7.60;;;2.40;;
44452;SDS011;30155;52.164;21.236;2023-02-01T06:46:23;8.80;;;3.10;;
44452;SDS011;30155;52.164;21.236;2023-02-01T06:51:19;7.40;;;3.00;;
44452;SDS011;30155;52.164;21.236;2023-02-01T06:56:14;10.30;;;3.40;;
44452;SDS011;30155;52.164;21.236;2023-02-01T07:01:08;13.30;;;3.30;;
44452;SDS011;30155;52.164;21.236;2023-02-01T07:06:01;12.80;;;3.00;;
44452;SDS011;30155;52.164;21.236;2023-02-01T07:10:55;11.00;;;2.40;;
44452;SDS011;30155;52.164;21.236;2023-02-01T07:15:48;7.20;;;2.40;;
44452;SDS011;30155;52.164;21.236;2023-02-01T07:20:41;11.60;;;2.20;;
44452;SDS011;30155;52.164;21.236;2023-02-01T07:25:34;9.30;;;1.90;;
44452;SDS011;30155;52.164;21.236;2023-02-01T07:30:27;10.10;;;2.90;;
44452;SDS011;30155;52.164;21.236;2023-02-01T07:35:20;14.90;;;4.00;;
44452;SDS011;30155;52.164;21.236;2023-02-01T07:40:13;13.10;;;2.50;;
44452;SDS011;30155;52.164;21.236;2023-02-01T07:45:06;7.90;;;2.60;;
44452;SDS011;30155;52.164;21.236;2023-02-01T07:50:11;10.70;;;2.40;;
44452;SDS011;30155;52.164;21.236;2023-02-01T07:55:04;5.90;;;2.30;;
44452;SDS011;30155;52.164;21.236;2023-02-01T07:59:58;11.30;;;2.90;;
44452;SDS011;30155;52.164;21.236;2023-02-01T08:05:11;8.40;;;2.50;;
44452;SDS011;30155;52.164;21.236;2023-02-01T08:10:05;12.70;;;3.00;;
44452;SDS011;30155;52.164;21.236;2023-02-01T08:15:02;12.10;;;3.70;;
44452;SDS011;30155;52.164;21.236;2023-02-01T08:19:55;8.60;;;2.70;;
44452;SDS011;30155;52.164;21.236;2023-02-01T08:24:48;8.60;;;2.50;;
44452;SDS011;30155;52.164;21.236;2023-02-01T08:29:41;9.30;;;2.50;;
44452;SDS011;30155;52.164;21.236;2023-02-01T08:34:34;10.50;;;2.70;;
44452;SDS011;30155;52.164;21.236;2023-02-01T08:39:27;11.10;;;2.90;;
44452;SDS011;30155;52.164;21.236;2023-02-01T08:44:20;10.50;;;3.50;;
44452;SDS011;30155;52.164;21.236;2023-02-01T08:49:13;13.20;;;3.20;;
44452;SDS011;30155;52.164;21.236;2023-02-01T08:54:09;9.70;;;2.80;;
44452;SDS011;30155;52.164;21.236;2023-02-01T08:59:01;8.70;;;2.80;;
44452;SDS011;30155;52.164;21.236;2023-02-01T09:03:54;8.10;;;3.30;;
44452;SDS011;30155;52.164;21.236;2023-02-01T09:08:47;12.10;;;4.20;;
44452;SDS011;30155;52.164;21.236;2023-02-01T09:13:40;5.90;;;2.70;;
44452;SDS011;30155;52.164;21.236;2023-02-01T09:18:34;11.80;;;3.70;;
44452;SDS011;30155;52.164;21.236;2023-02-01T09:23:41;13.10;;;3.80;;
44452;SDS011;30155;52.164;21.236;2023-02-01T09:28:33;14.00;;;3.30;;
44452;SDS011;30155;52.164;21.236;2023-02-01T09:33:28;11.80;;;3.00;;
44452;SDS011;30155;52.164;21.236;2023-02-01T09:38:21;11.60;;;3.20;;
44452;SDS011;30155;52.164;21.236;2023-02-01T09:48:31;8.20;;;3.10;;
44452;SDS011;30155;52.164;21.236;2023-02-01T09:59:03;8.40;;;4.00;;
44452;SDS011;30155;52.164;21.236;2023-02-01T10:04:04;6.60;;;2.90;;
44452;SDS011;30155;52.164;21.236;2023-02-01T10:14:10;9.40;;;2.70;;
44452;SDS011;30155;52.164;21.236;2023-02-01T10:19:19;10.30;;;3.30;;
44452;SDS011;30155;52.164;21.236;2023-02-01T10:29:39;10.30;;;3.70;;
44452;SDS011;30155;52.164;21.236;2023-02-01T10:34:34;10.40;;;2.70;;
44452;SDS011;30155;52.164;21.236;2023-02-01T10:39:29;8.90;;;3.10;;
44452;SDS011;30155;52.164;21.236;2023-02-01T10:44:23;12.40;;;3.20;;
44452;SDS011;30155;52.164;21.236;2023-02-01T10:49:38;13.60;;;4.50;;
44452;SDS011;30155;52.164;21.236;2023-02-01T10:54:43;13.80;;;3.40;;
44452;SDS011;30155;52.164;21.236;2023-02-01T10:59:36;12.30;;;3.60;;
44452;SDS011;30155;52.164;21.236;2023-02-01T11:04:32;11.00;;;3.40;;
44452;SDS011;30155;52.164;21.236;2023-02-01T11:09:28;10.70;;;2.80;;
44452;SDS011;30155;52.164;21.236;2023-02-01T11:19:17;8.30;;;4.00;;
44452;SDS011;30155;52.164;21.236;2023-02-01T11:24:20;9.40;;;3.30;;
44452;SDS011;30155;52.164;21.236;2023-02-01T11:29:17;10.90;;;4.20;;
44452;SDS011;30155;52.164;21.236;2023-02-01T11:34:17;11.00;;;3.90;;
44452;SDS011;30155;52.164;21.236;2023-02-01T11:39:25;8.90;;;3.10;;
44452;SDS011;30155;52.164;21.236;2023-02-01T11:44:26;5.50;;;3.00;;
44452;SDS011;30155;52.164;21.236;2023-02-01T11:49:25;13.60;;;3.30;;
44452;SDS011;30155;52.164;21.236;2023-02-01T12:16:23;10.90;;;3.50;;
44452;SDS011;30155;52.164;21.236;2023-02-01T12:21:36;5.40;;;2.90;;
44452;SDS011;30155;52.164;21.236;2023-02-01T12:26:47;13.00;;;3.90;;
44452;SDS011;30155;52.164;21.236;2023-02-01T12:47:31;15.10;;;5.10;;
44452;SDS011;30155;52.164;21.236;2023-02-01T12:52:49;8.70;;;3.30;;
44452;SDS011;30155;52.164;21.236;2023-02-01T12:57:43;8.80;;;3.40;;
44452;SDS011;30155;52.164;21.236;2023-02-01T13:02:42;15.60;;;4.50;;
44452;SDS011;30155;52.164;21.236;2023-02-01T13:07:41;12.00;;;4.60;;
44452;SDS011;30155;52.164;21.236;2023-02-01T13:13:28;15.20;;;4.40;;
44452;SDS011;30155;52.164;21.236;2023-02-01T13:18:37;8.80;;;4.10;;
44452;SDS011;30155;52.164;21.236;2023-02-01T13:23:35;17.20;;;4.40;;
44452;SDS011;30155;52.164;21.236;2023-02-01T13:28:40;16.00;;;4.70;;
44452;SDS011;30155;52.164;21.236;2023-02-01T13:44:22;10.10;;;4.00;;
44452;SDS011;30155;52.164;21.236;2023-02-01T13:49:24;12.30;;;4.00;;
44452;SDS011;30155;52.164;21.236;2023-02-01T13:54:27;10.30;;;4.30;;
44452;SDS011;30155;52.164;21.236;2023-02-01T13:59:44;14.10;;;4.20;;
44452;SDS011;30155;52.164;21.236;2023-02-01T14:04:46;11.80;;;4.30;;
44452;SDS011;30155;52.164;21.236;2023-02-01T14:09:41;11.50;;;3.80;;
44452;SDS011;30155;52.164;21.236;2023-02-01T14:19:28;9.30;;;4.50;;
44452;SDS011;30155;52.164;21.236;2023-02-01T14:29:27;10.10;;;4.60;;
44452;SDS011;30155;52.164;21.236;2023-02-01T14:39:30;10.60;;;4.20;;
44452;SDS011;30155;52.164;21.236;2023-02-01T14:44:28;7.00;;;3.30;;
44452;SDS011;30155;52.164;21.236;2023-02-01T14:49:23;9.50;;;3.50;;
44452;SDS011;30155;52.164;21.236;2023-02-01T14:54:17;7.40;;;3.80;;
44452;SDS011;30155;52.164;21.236;2023-02-01T14:59:15;7.10;;;3.30;;
44452;SDS011;30155;52.164;21.236;2023-02-01T15:04:10;9.20;;;3.00;;
44452;SDS011;30155;52.164;21.236;2023-02-01T15:14:12;8.60;;;3.20;;
44452;SDS011;30155;52.164;21.236;2023-02-01T15:19:10;7.10;;;3.50;;
44452;SDS011;30155;52.164;21.236;2023-02-01T15:24:28;7.70;;;3.10;;
44452;SDS011;30155;52.164;21.236;2023-02-01T15:29:22;6.80;;;3.30;;
44452;SDS011;30155;52.164;21.236;2023-02-01T15:34:19;10.10;;;4.20;;
44452;SDS011;30155;52.164;21.236;2023-02-01T15:44:29;6.50;;;3.40;;
44452;SDS011;30155;52.164;21.236;2023-02-01T15:49:30;8.80;;;4.40;;
44452;SDS011;30155;52.164;21.236;2023-02-01T15:54:30;4.50;;;3.70;;
44452;SDS011;30155;52.164;21.236;2023-02-01T15:59:40;7.80;;;3.60;;
44452;SDS011;30155;52.164;21.236;2023-02-01T16:04:45;8.00;;;3.90;;
44452;SDS011;30155;52.164;21.236;2023-02-01T16:09:50;7.00;;;3.90;;
44452;SDS011;30155;52.164;21.236;2023-02-01T16:14:47;6.20;;;4.00;;
44452;SDS011;30155;52.164;21.236;2023-02-01T16:19:40;5.60;;;4.20;;
44452;SDS011;30155;52.164;21.236;2023-02-01T16:24:32;5.20;;;4.00;;
44452;SDS011;30155;52.164;21.236;2023-02-01T16:29:25;8.60;;;3.90;;
44452;SDS011;30155;52.164;21.236;2023-02-01T16:34:18;6.70;;;4.10;;
44452;SDS011;30155;52.164;21.236;2023-02-01T16:39:12;9.50;;;4.70;;
44452;SDS011;30155;52.164;21.236;2023-02-01T16:44:06;5.70;;;4.60;;
44452;SDS011;30155;52.164;21.236;2023-02-01T16:48:59;7.30;;;4.50;;
44452;SDS011;30155;52.164;21.236;2023-02-01T16:53:52;7.30;;;4.10;;
44452;SDS011;30155;52.164;21.236;2023-02-01T16:58:46;7.60;;;5.20;;
44452;SDS011;30155;52.164;21.236;2023-02-01T17:03:39;9.60;;;5.00;;
44452;SDS011;30155;52.164;21.236;2023-02-01T17:08:35;10.30;;;5.70;;
44452;SDS011;30155;52.164;21.236;2023-02-01T17:13:31;7.20;;;5.20;;
44452;SDS011;30155;52.164;21.236;2023-02-01T17:18:25;7.20;;;5.00;;
44452;SDS011;30155;52.164;21.236;2023-02-01T17:23:22;6.40;;;4.60;;
44452;SDS011;30155;52.164;21.236;2023-02-01T17:28:15;9.70;;;5.10;;
44452;SDS011;30155;52.164;21.236;2023-02-01T17:33:37;7.90;;;5.20;;
44452;SDS011;30155;52.164;21.236;2023-02-01T17:38:34;7.50;;;5.20;;
44452;SDS011;30155;52.164;21.236;2023-02-01T17:43:28;8.10;;;5.10;;
44452;SDS011;30155;52.164;21.236;2023-02-01T17:48:21;9.10;;;4.20;;
44452;SDS011;30155;52.164;21.236;2023-02-01T17:53:14;7.90;;;5.10;;
44452;SDS011;30155;52.164;21.236;2023-02-01T17:58:11;8.60;;;4.70;;
44452;SDS011;30155;52.164;21.236;2023-02-01T18:03:05;12.80;;;5.20;;
44452;SDS011;30155;52.164;21.236;2023-02-01T18:07:59;9.30;;;5.20;;
44452;SDS011;30155;52.164;21.236;2023-02-01T18:12:52;7.30;;;4.60;;
44452;SDS011;30155;52.164;21.236;2023-02-01T18:17:46;7.70;;;5.00;;
44452;SDS011;30155;52.164;21.236;2023-02-01T18:22:39;5.90;;;4.10;;
44452;SDS011;30155;52.164;21.236;2023-02-01T18:27:32;6.40;;;3.90;;
44452;SDS011;30155;52.164;21.236;2023-02-01T18:32:25;11.40;;;4.50;;
44452;SDS011;30155;52.164;21.236;2023-02-01T18:37:18;9.20;;;4.90;;
44452;SDS011;30155;52.164;21.236;2023-02-01T18:42:11;17.00;;;4.20;;
44452;SDS011;30155;52.164;21.236;2023-02-01T18:47:04;10.70;;;4.50;;
44452;SDS011;30155;52.164;21.236;2023-02-01T18:51:56;8.30;;;4.20;;
44452;SDS011;30155;52.164;21.236;2023-02-01T18:56:50;10.70;;;4.90;;
44452;SDS011;30155;52.164;21.236;2023-02-01T19:01:43;9.20;;;5.00;;
44452;SDS011;30155;52.164;21.236;2023-02-01T19:06:37;10.40;;;5.80;;
44452;SDS011;30155;52.164;21.236;2023-02-01T19:11:30;10.30;;;4.70;;
44452;SDS011;30155;52.164;21.236;2023-02-01T19:16:22;9.50;;;4.70;;
44452;SDS011;30155;52.164;21.236;2023-02-01T19:21:16;17.20;;;5.00;;
44452;SDS011;30155;52.164;21.236;2023-02-01T19:26:18;10.10;;;3.50;;
44452;SDS011;30155;52.164;21.236;2023-02-01T19:31:11;10.40;;;4.30;;
44452;SDS011;30155;52.164;21.236;2023-02-01T19:36:04;9.90;;;4.90;;
44452;SDS011;30155;52.164;21.236;2023-02-01T19:41:00;7.80;;;4.60;;
44452;SDS011;30155;52.164;21.236;2023-02-01T19:45:53;6.20;;;3.80;;
44452;SDS011;30155;52.164;21.236;2023-02-01T19:50:47;6.80;;;3.30;;
44452;SDS011;30155;52.164;21.236;2023-02-01T19:55:44;10.90;;;3.80;;
44452;SDS011;30155;52.164;21.236;2023-02-01T20:00:37;8.80;;;4.50;;
44452;SDS011;30155;52.164;21.236;2023-02-01T20:05:30;9.80;;;4.00;;
44452;SDS011;30155;52.164;21.236;2023-02-01T20:10:23;8.40;;;4.70;;
44452;SDS011;30155;52.164;21.236;2023-02-01T20:15:16;10.90;;;5.50;;
44452;SDS011;30155;52.164;21.236;2023-02-01T20:20:09;11.50;;;5.50;;
44452;SDS011;30155;52.164;21.236;2023-02-01T20:25:02;8.60;;;4.60;;
44452;SDS011;30155;52.164;21.236;2023-02-01T20:29:55;13.10;;;5.20;;
44452;SDS011;30155;52.164;21.236;2023-02-01T20:34:49;11.90;;;5.40;;
44452;SDS011;30155;52.164;21.236;2023-02-01T20:39:43;8.20;;;5.00;;
44452;SDS011;30155;52.164;21.236;2023-02-01T20:44:36;9.80;;;5.50;;
44452;SDS011;30155;52.164;21.236;2023-02-01T20:49:29;9.70;;;4.30;;
44452;SDS011;30155;52.164;21.236;2023-02-01T20:54:23;12.00;;;5.40;;
44452;SDS011;30155;52.164;21.236;2023-02-01T20:59:16;12.30;;;5.50;;
44452;SDS011;30155;52.164;21.236;2023-02-01T21:04:09;12.30;;;6.00;;
44452;SDS011;30155;52.164;21.236;2023-02-01T21:09:02;10.80;;;5.00;;
44452;SDS011;30155;52.164;21.236;2023-02-01T21:13:55;12.20;;;5.80;;
44452;SDS011;30155;52.164;21.236;2023-02-01T21:18:50;9.90;;;5.10;;
44452;SDS011;30155;52.164;21.236;2023-02-01T21:23:44;10.00;;;5.20;;
44452;SDS011;30155;52.164;21.236;2023-02-01T21:28:38;12.20;;;5.20;;
44452;SDS011;30155;52.164;21.236;2023-02-01T21:33:30;7.40;;;5.10;;
44452;SDS011;30155;52.164;21.236;2023-02-01T21:38:23;10.70;;;6.00;;
44452;SDS011;30155;52.164;21.236;2023-02-01T21:43:16;7.60;;;4.60;;
44452;SDS011;30155;52.164;21.236;2023-02-01T21:48:09;9.50;;;4.10;;
44452;SDS011;30155;52.164;21.236;2023-02-01T21:53:02;10.90;;;4.80;;
44452;SDS011;30155;52.164;21.236;2023-02-01T21:57:55;14.90;;;4.80;;
44452;SDS011;30155;52.164;21.236;2023-02-01T22:02:48;9.60;;;4.50;;
44452;SDS011;30155;52.164;21.236;2023-02-01T22:07:41;7.20;;;4.30;;
44452;SDS011;30155;52.164;21.236;2023-02-01T22:12:34;7.20;;;4.50;;
44452;SDS011;30155;52.164;21.236;2023-02-01T22:17:27;11.90;;;4.80;;
44452;SDS011;30155;52.164;21.236;2023-02-01T22:22:21;5.10;;;3.80;;
44452;SDS011;30155;52.164;21.236;2023-02-01T22:27:15;8.20;;;4.90;;
44452;SDS011;30155;52.164;21.236;2023-02-01T22:32:08;11.40;;;4.40;;
44452;SDS011;30155;52.164;21.236;2023-02-01T22:37:02;9.20;;;5.10;;
44452;SDS011;30155;52.164;21.236;2023-02-01T22:41:55;14.10;;;6.60;;
44452;SDS011;30155;52.164;21.236;2023-02-01T22:46:49;6.60;;;4.00;;
44452;SDS011;30155;52.164;21.236;2023-02-01T22:51:42;10.10;;;3.90;;
44452;SDS011;30155;52.164;21.236;2023-02-01T22:56:36;7.70;;;4.40;;
44452;SDS011;30155;52.164;21.236;2023-02-01T23:01:29;8.80;;;4.10;;
44452;SDS011;30155;52.164;21.236;2023-02-01T23:06:25;8.60;;;5.00;;
44452;SDS011;30155;52.164;21.236;2023-02-01T23:11:19;9.70;;;5.80;;
44452;SDS011;30155;52.164;21.236;2023-02-01T23:16:14;9.10;;;5.60;;
44452;SDS011;30155;52.164;21.236;2023-02-01T23:21:11;12.10;;;6.10;;
44452;SDS011;30155;52.164;21.236;2023-02-01T23:26:07;9.20;;;6.10;;
44452;SDS011;30155;52.164;21.236;2023-02-01T23:31:04;6.80;;;4.50;;
44452;SDS011;30155;52.164;21.236;2023-02-01T23:36:00;5.50;;;3.90;;
44452;SDS011;30155;52.164;21.236;2023-02-01T23:40:57;7.00;;;4.00;;
44452;SDS011;30155;52.164;21.236;2023-02-01T23:50:48;6.60;;;5.00;;
44452;SDS011;30155;52.164;21.236;2023-02-01T23:55:41;7.50;;;5.30;;
